createdAt,value
2018-07-30T00:00:28.448Z,45.20
2018-07-30T00:01:28.432Z,47.40
2018-07-30T00:02:28.508Z,45.90
2018-07-30T00:03:28.531Z,46.80
2018-07-30T00:04:28.583Z,47.40
2018-07-30T00:05:28.775Z,48.30
2018-07-30T00:06:28.710Z,48.60
2018-07-30T00:07:28.736Z,46.90
2018-07-30T00:08:28.818Z,48.10
2018-07-30T00:09:28.811Z,49.70
2018-07-30T00:10:28.888Z,48.70
2018-07-30T00:11:28.975Z,45.50
2018-07-30T00:12:28.985Z,44.60
2018-07-30T00:13:29.040Z,46.10
2018-07-30T00:14:29.061Z,45.90
2018-07-30T00:15:29.121Z,44.30
2018-07-30T00:16:29.177Z,48.10
2018-07-30T00:17:29.212Z,44.60
2018-07-30T00:18:29.276Z,45.20
2018-07-30T00:19:29.305Z,45.00
2018-07-30T00:20:29.370Z,45.00
2018-07-30T00:21:29.462Z,44.20
2018-07-30T00:22:29.469Z,45.50
2018-07-30T00:23:29.513Z,44.60
2018-07-30T00:24:29.530Z,46.50
2018-07-30T00:25:29.576Z,46.00
2018-07-30T00:26:29.653Z,47.70
2018-07-30T00:27:29.715Z,47.10
2018-07-30T00:28:29.753Z,46.90
2018-07-30T00:29:29.811Z,48.90
2018-07-30T00:30:29.868Z,45.20
2018-07-30T00:31:29.940Z,45.80
2018-07-30T00:32:29.938Z,45.70
2018-07-30T00:33:30.009Z,45.70
2018-07-30T00:34:30.028Z,47.10
2018-07-30T00:35:30.082Z,53.90
2018-07-30T00:36:30.112Z,46.80
2018-07-30T00:37:30.199Z,48.20
2018-07-30T00:38:30.196Z,47.00
2018-07-30T00:39:30.248Z,48.30
2018-07-30T00:40:30.311Z,46.20
2018-07-30T00:41:30.382Z,48.60
2018-07-30T00:42:30.413Z,46.50
2018-07-30T00:43:30.448Z,46.90
2018-07-30T00:44:30.497Z,47.50
2018-07-30T00:45:30.564Z,48.00
2018-07-30T00:46:30.582Z,47.10
2018-07-30T00:47:30.638Z,49.60
2018-07-30T00:48:30.722Z,48.40
2018-07-30T00:49:30.734Z,49.80
2018-07-30T00:50:30.778Z,46.80
2018-07-30T00:51:30.829Z,47.10
2018-07-30T00:52:30.895Z,49.70
2018-07-30T00:53:30.917Z,48.10
2018-07-30T00:54:30.990Z,48.10
2018-07-30T00:55:31.023Z,46.40
2018-07-30T00:56:31.094Z,47.90
2018-07-30T00:57:31.116Z,49.30
2018-07-30T00:58:31.146Z,47.50
2018-07-30T00:59:31.207Z,49.60
2018-07-30T01:00:31.253Z,46.80
2018-07-30T01:01:31.299Z,58.50
2018-07-30T01:02:31.361Z,47.20
2018-07-30T01:03:31.443Z,47.30
2018-07-30T01:04:31.466Z,46.40
2018-07-30T01:05:31.483Z,49.10
2018-07-30T01:06:31.546Z,48.40
2018-07-30T01:07:31.587Z,48.50
2018-07-30T01:08:31.621Z,48.30
2018-07-30T01:09:31.693Z,48.80
2018-07-30T01:10:31.716Z,52.40
2018-07-30T01:11:31.810Z,47.40
2018-07-30T01:12:31.849Z,49.40
2018-07-30T01:13:31.856Z,51.50
2018-07-30T01:14:31.946Z,51.40
2018-07-30T01:15:31.977Z,50.00
2018-07-30T01:16:32.068Z,50.70
2018-07-30T01:17:32.042Z,51.40
2018-07-30T01:18:32.109Z,50.90
2018-07-30T01:19:32.148Z,48.90
2018-07-30T01:20:32.201Z,51.00
2018-07-30T01:21:32.293Z,48.10
2018-07-30T01:22:32.342Z,49.10
2018-07-30T01:23:32.357Z,49.60
2018-07-30T01:24:32.396Z,49.40
2018-07-30T01:25:32.473Z,48.20
2018-07-30T01:26:32.461Z,51.00
2018-07-30T01:27:32.518Z,48.30
2018-07-30T01:28:32.572Z,52.50
2018-07-30T01:29:32.640Z,48.90
2018-07-30T01:30:32.710Z,49.20
2018-07-30T01:31:32.757Z,48.70
2018-07-30T01:32:32.773Z,48.70
2018-07-30T01:33:32.826Z,49.70
2018-07-30T01:34:32.869Z,50.60
2018-07-30T01:35:32.889Z,51.60
2018-07-30T01:36:32.946Z,49.80
2018-07-30T01:37:33.026Z,52.50
2018-07-30T01:38:33.026Z,48.30
2018-07-30T01:39:33.113Z,52.90
2018-07-30T01:40:33.138Z,51.20
2018-07-30T01:41:33.188Z,49.10
2018-07-30T01:42:33.261Z,50.50
2018-07-30T01:43:33.296Z,49.80
2018-07-30T01:44:33.319Z,48.90
2018-07-30T01:45:33.393Z,50.90
2018-07-30T01:46:33.406Z,49.30
2018-07-30T01:47:33.473Z,47.50
2018-07-30T01:48:33.684Z,47.70
2018-07-30T01:49:33.545Z,52.00
2018-07-30T01:50:33.599Z,51.90
2018-07-30T01:51:33.653Z,51.90
2018-07-30T01:52:33.704Z,51.50
2018-07-30T01:53:33.803Z,49.20
2018-07-30T01:54:33.792Z,50.60
2018-07-30T01:55:33.871Z,50.80
2018-07-30T01:56:33.892Z,50.50
2018-07-30T01:57:33.949Z,51.10
2018-07-30T01:58:33.970Z,51.10
2018-07-30T01:59:34.033Z,51.80
2018-07-30T02:00:34.053Z,52.90
2018-07-30T02:01:34.205Z,54.60
2018-07-30T02:02:34.168Z,51.90
2018-07-30T02:03:34.217Z,52.70
2018-07-30T02:04:34.243Z,57.20
2018-07-30T02:05:34.305Z,52.90
2018-07-30T02:06:34.369Z,52.00
2018-07-30T02:07:34.381Z,52.80
2018-07-30T02:08:34.445Z,53.00
2018-07-30T02:09:34.589Z,52.60
2018-07-30T02:10:34.612Z,53.50
2018-07-30T02:11:34.595Z,52.40
2018-07-30T02:12:34.627Z,53.20
2018-07-30T02:13:34.694Z,52.30
2018-07-30T02:14:34.736Z,53.90
2018-07-30T02:15:34.797Z,51.70
2018-07-30T02:16:34.833Z,52.00
2018-07-30T02:17:34.857Z,52.30
2018-07-30T02:18:34.902Z,53.90
2018-07-30T02:19:34.970Z,50.80
2018-07-30T02:20:35.009Z,52.50
2018-07-30T02:21:35.168Z,51.40
2018-07-30T02:22:35.108Z,51.90
2018-07-30T02:23:35.139Z,53.10
2018-07-30T02:24:35.212Z,52.70
2018-07-30T02:25:35.224Z,51.90
2018-07-30T02:26:35.290Z,52.70
2018-07-30T02:27:35.420Z,52.20
2018-07-30T02:28:35.372Z,50.40
2018-07-30T02:29:35.476Z,51.20
2018-07-30T02:30:35.533Z,51.70
2018-07-30T02:31:35.584Z,51.90
2018-07-30T02:32:35.639Z,52.20
2018-07-30T02:33:35.614Z,53.30
2018-07-30T02:34:35.641Z,51.70
2018-07-30T02:35:35.709Z,54.60
2018-07-30T02:36:35.756Z,53.70
2018-07-30T02:37:35.812Z,53.50
2018-07-30T02:38:35.836Z,54.60
2018-07-30T02:39:35.898Z,53.50
2018-07-30T02:40:35.937Z,53.10
2018-07-30T02:41:35.957Z,52.10
2018-07-30T02:42:36.024Z,52.60
2018-07-30T02:43:36.104Z,51.50
2018-07-30T02:44:36.111Z,54.00
2018-07-30T02:45:36.177Z,57.00
2018-07-30T02:46:36.223Z,51.30
2018-07-30T02:47:36.247Z,52.50
2018-07-30T02:48:36.308Z,49.70
2018-07-30T02:49:36.389Z,50.90
2018-07-30T02:50:36.388Z,52.30
2018-07-30T02:51:36.428Z,48.50
2018-07-30T02:52:36.498Z,50.00
2018-07-30T02:53:36.520Z,47.80
2018-07-30T02:54:36.564Z,48.90
2018-07-30T02:55:36.649Z,49.60
2018-07-30T02:56:36.711Z,51.60
2018-07-30T02:57:36.782Z,51.10
2018-07-30T02:58:36.756Z,49.50
2018-07-30T02:59:36.796Z,50.30
2018-07-30T03:00:36.872Z,48.40
2018-07-30T03:01:36.879Z,47.70
2018-07-30T03:02:36.959Z,48.70
2018-07-30T03:03:36.983Z,48.90
2018-07-30T03:04:37.015Z,49.10
2018-07-30T03:05:37.094Z,49.70
2018-07-30T03:06:37.133Z,52.60
2018-07-30T03:07:37.207Z,49.30
2018-07-30T03:08:37.228Z,60.20
2018-07-30T03:09:37.271Z,51.00
2018-07-30T03:10:37.320Z,50.10
2018-07-30T03:11:37.401Z,48.20
2018-07-30T03:12:37.411Z,47.10
2018-07-30T03:13:37.492Z,46.70
2018-07-30T03:14:37.494Z,48.60
2018-07-30T03:15:37.560Z,48.30
2018-07-30T03:16:37.606Z,48.30
2018-07-30T03:17:37.666Z,48.10
2018-07-30T03:18:37.686Z,44.80
2018-07-30T03:19:37.734Z,46.50
2018-07-30T03:20:37.804Z,47.90
2018-07-30T03:21:37.823Z,46.30
2018-07-30T03:22:37.860Z,46.10
2018-07-30T03:23:37.923Z,45.30
2018-07-30T03:24:37.965Z,47.30
2018-07-30T03:25:38.012Z,46.70
2018-07-30T03:26:38.033Z,47.10
2018-07-30T03:27:38.083Z,48.10
2018-07-30T03:28:38.190Z,49.00
2018-07-30T03:29:38.189Z,49.50
2018-07-30T03:30:38.207Z,50.20
2018-07-30T03:31:38.272Z,48.90
2018-07-30T03:32:38.304Z,47.80
2018-07-30T03:33:38.371Z,47.30
2018-07-30T03:34:38.417Z,49.70
2018-07-30T03:35:38.467Z,50.30
2018-07-30T03:36:38.668Z,47.90
2018-07-30T03:37:38.571Z,52.50
2018-07-30T03:38:38.599Z,49.20
2018-07-30T03:39:38.667Z,50.50
2018-07-30T03:40:38.698Z,48.70
2018-07-30T03:41:38.731Z,48.90
2018-07-30T03:42:38.765Z,51.60
2018-07-30T03:43:38.846Z,50.80
2018-07-30T03:44:38.918Z,53.00
2018-07-30T03:45:38.915Z,50.00
2018-07-30T03:46:38.965Z,49.80
2018-07-30T03:47:39.038Z,49.80
2018-07-30T03:48:39.059Z,49.50
2018-07-30T03:49:39.117Z,49.30
2018-07-30T03:50:39.142Z,51.00
2018-07-30T03:51:39.168Z,53.40
2018-07-30T03:52:39.238Z,49.80
2018-07-30T03:53:39.278Z,50.00
2018-07-30T03:54:39.385Z,48.30
2018-07-30T03:55:39.371Z,46.10
2018-07-30T03:56:39.405Z,46.30
2018-07-30T03:57:39.708Z,46.60
2018-07-30T03:58:39.526Z,45.60
2018-07-30T03:59:39.542Z,45.50
2018-07-30T04:00:39.607Z,44.40
2018-07-30T04:01:39.644Z,43.40
2018-07-30T04:02:39.693Z,43.90
2018-07-30T04:03:39.782Z,46.10
2018-07-30T04:04:39.769Z,43.40
2018-07-30T04:05:39.832Z,44.00
2018-07-30T04:06:39.849Z,50.90
2018-07-30T04:07:39.926Z,46.60
2018-07-30T04:08:40.197Z,47.90
2018-07-30T04:09:40.215Z,46.60
2018-07-30T04:10:40.056Z,45.20
2018-07-30T04:11:40.131Z,45.40
2018-07-30T04:12:40.250Z,46.00
2018-07-30T04:13:40.194Z,46.70
2018-07-30T04:14:40.264Z,46.10
2018-07-30T04:15:40.322Z,48.80
2018-07-30T04:16:40.321Z,45.60
2018-07-30T04:17:40.382Z,46.90
2018-07-30T04:18:40.438Z,47.60
2018-07-30T04:19:40.625Z,47.90
2018-07-30T04:20:40.511Z,50.20
2018-07-30T04:21:40.584Z,50.80
2018-07-30T04:22:40.617Z,49.70
2018-07-30T04:23:40.627Z,53.30
2018-07-30T04:24:40.701Z,53.70
2018-07-30T04:25:40.744Z,57.30
2018-07-30T04:26:40.778Z,53.60
2018-07-30T04:27:40.819Z,51.80
2018-07-30T04:28:40.885Z,56.10
2018-07-30T04:29:40.967Z,52.80
2018-07-30T04:30:41.113Z,54.00
2018-07-30T04:31:40.991Z,54.70
2018-07-30T04:32:41.068Z,56.30
2018-07-30T04:33:41.125Z,52.20
2018-07-30T04:34:42.384Z,51.40
2018-07-30T04:35:41.201Z,57.60
2018-07-30T04:36:41.503Z,51.50
2018-07-30T04:37:41.295Z,51.80
2018-07-30T04:38:41.327Z,54.60
2018-07-30T04:39:41.357Z,56.00
2018-07-30T04:40:41.424Z,54.80
2018-07-30T04:42:41.516Z,53.90
2018-07-30T04:43:41.607Z,51.90
2018-07-30T04:44:41.605Z,52.20
2018-07-30T04:45:41.660Z,52.20
2018-07-30T04:46:41.709Z,56.00
2018-07-30T04:47:41.990Z,52.90
2018-07-30T04:48:41.806Z,58.30
2018-07-30T04:49:41.866Z,55.70
2018-07-30T04:50:41.887Z,51.80
2018-07-30T04:51:41.923Z,57.40
2018-07-30T04:52:41.986Z,55.70
2018-07-30T04:53:42.191Z,53.90
2018-07-30T04:54:42.092Z,55.20
2018-07-30T04:55:42.096Z,53.50
2018-07-30T04:56:42.154Z,55.70
2018-07-30T04:57:42.213Z,54.80
2018-07-30T04:58:42.312Z,56.40
2018-07-30T04:59:42.304Z,58.10
2018-07-30T05:00:42.338Z,53.90
2018-07-30T05:01:42.401Z,62.20
2018-07-30T05:02:42.439Z,59.90
2018-07-30T05:03:42.733Z,57.80
2018-07-30T05:04:42.564Z,57.40
2018-07-30T05:05:42.569Z,58.40
2018-07-30T05:06:42.633Z,57.60
2018-07-30T05:07:42.654Z,61.50
2018-07-30T05:08:42.904Z,59.30
2018-07-30T05:09:42.755Z,69.70
2018-07-30T05:10:42.783Z,67.30
2018-07-30T05:11:42.856Z,66.80
2018-07-30T05:12:42.916Z,64.90
2018-07-30T05:13:42.931Z,64.30
2018-07-30T05:14:43.199Z,66.60
2018-07-30T05:15:43.028Z,67.90
2018-07-30T05:16:43.085Z,67.10
2018-07-30T05:17:43.110Z,74.80
2018-07-30T05:18:43.161Z,71.70
2018-07-30T05:19:43.232Z,67.20
2018-07-30T05:20:43.495Z,65.20
2018-07-30T05:21:43.293Z,65.80
2018-07-30T05:22:43.378Z,66.20
2018-07-30T05:23:43.388Z,66.50
2018-07-30T05:24:43.441Z,61.30
2018-07-30T05:25:43.507Z,59.20
2018-07-30T05:26:43.668Z,58.80
2018-07-30T05:27:43.583Z,59.00
2018-07-30T05:28:43.627Z,60.30
2018-07-30T05:29:43.674Z,61.30
2018-07-30T05:30:43.680Z,58.40
2018-07-30T05:31:43.827Z,58.30
2018-07-30T05:32:43.988Z,57.20
2018-07-30T05:33:43.847Z,52.80
2018-07-30T05:34:43.892Z,51.90
2018-07-30T05:35:43.943Z,54.90
2018-07-30T05:36:44.012Z,50.80
2018-07-30T05:37:44.262Z,52.40
2018-07-30T05:38:44.074Z,53.10
2018-07-30T05:39:44.103Z,54.20
2018-07-30T05:40:44.144Z,52.90
2018-07-30T05:41:44.228Z,52.60
2018-07-30T05:42:44.280Z,55.30
2018-07-30T05:43:44.509Z,55.00
2018-07-30T05:44:44.349Z,59.90
2018-07-30T05:45:44.365Z,65.70
2018-07-30T05:46:44.440Z,72.90
2018-07-30T05:47:44.492Z,84.30
2018-07-30T05:48:44.521Z,91.70
2018-07-30T05:49:44.746Z,99.50
2018-07-30T05:50:44.600Z,101.10
2018-07-30T05:51:44.664Z,100.20
2018-07-30T05:52:44.717Z,101.50
2018-07-30T05:53:44.742Z,106.60
2018-07-30T05:54:44.781Z,110.30
2018-07-30T05:55:45.111Z,122.40
2018-07-30T05:56:44.893Z,133.80
2018-07-30T05:57:44.921Z,130.80
2018-07-30T05:58:44.970Z,137.60
2018-07-30T05:59:45.068Z,149.40
2018-07-30T06:00:45.082Z,141.10
2018-07-30T06:01:45.305Z,149.40
2018-07-30T06:02:45.162Z,152.90
2018-07-30T06:03:45.236Z,153.00
2018-07-30T06:04:45.255Z,153.80
2018-07-30T06:05:45.300Z,159.00
2018-07-30T06:06:45.328Z,161.40
2018-07-30T06:07:45.596Z,161.40
2018-07-30T06:08:45.426Z,165.30
2018-07-30T06:09:45.576Z,162.60
2018-07-30T06:10:45.506Z,158.30
2018-07-30T06:11:45.561Z,160.50
2018-07-30T06:12:45.628Z,148.80
2018-07-30T06:13:45.807Z,147.60
2018-07-30T06:14:45.719Z,147.70
2018-07-30T06:15:45.755Z,152.80
2018-07-30T06:16:45.779Z,151.20
2018-07-30T06:17:45.828Z,159.20
2018-07-30T06:18:45.890Z,164.10
2018-07-30T06:19:45.938Z,147.90
2018-07-30T06:20:46.183Z,138.50
2018-07-30T06:21:46.006Z,159.70
2018-07-30T06:22:46.055Z,158.00
2018-07-30T06:23:46.109Z,168.60
2018-07-30T06:24:46.145Z,163.10
2018-07-30T06:25:46.344Z,172.80
2018-07-30T06:26:46.227Z,166.00
2018-07-30T06:27:46.277Z,161.50
2018-07-30T06:28:46.338Z,159.10
2018-07-30T06:29:46.381Z,158.50
2018-07-30T06:30:46.426Z,146.80
2018-07-30T06:31:46.721Z,141.30
2018-07-30T06:32:46.504Z,156.30
2018-07-30T06:33:46.536Z,159.90
2018-07-30T06:34:46.622Z,152.20
2018-07-30T06:35:46.653Z,135.60
2018-07-30T06:36:46.855Z,159.50
2018-07-30T06:37:46.744Z,141.30
2018-07-30T06:38:46.818Z,125.50
2018-07-30T06:39:46.820Z,146.10
2018-07-30T06:40:46.879Z,147.90
2018-07-30T06:41:46.904Z,131.90
2018-07-30T06:42:46.944Z,129.60
2018-07-30T06:43:47.006Z,120.60
2018-07-30T06:44:47.055Z,132.80
2018-07-30T06:45:47.120Z,125.90
2018-07-30T06:46:47.352Z,122.60
2018-07-30T06:47:47.414Z,125.20
2018-07-30T06:48:47.238Z,137.70
2018-07-30T06:49:47.262Z,138.10
2018-07-30T06:50:47.323Z,135.10
2018-07-30T06:51:47.364Z,134.30
2018-07-30T06:52:49.081Z,131.30
2018-07-30T06:53:47.499Z,129.10
2018-07-30T06:54:47.504Z,118.90
2018-07-30T06:55:47.537Z,119.00
2018-07-30T06:56:47.586Z,134.50
2018-07-30T06:57:47.661Z,124.70
2018-07-30T06:58:47.878Z,150.00
2018-07-30T06:59:47.740Z,154.40
2018-07-30T07:00:47.783Z,134.40
2018-07-30T07:01:47.822Z,140.90
2018-07-30T07:03:48.090Z,153.90
2018-07-30T07:04:47.936Z,156.00
2018-07-30T07:05:48.043Z,140.80
2018-07-30T07:06:48.053Z,153.90
2018-07-30T07:07:48.075Z,147.60
2018-07-30T07:08:48.142Z,148.30
2018-07-30T07:09:48.386Z,149.70
2018-07-30T07:10:48.271Z,155.70
2018-07-30T07:11:48.246Z,136.70
2018-07-30T07:12:48.318Z,132.00
2018-07-30T07:13:48.349Z,129.30
2018-07-30T07:14:48.533Z,138.00
2018-07-30T07:15:48.427Z,137.90
2018-07-30T07:16:48.553Z,128.50
2018-07-30T07:17:48.555Z,132.80
2018-07-30T07:18:48.580Z,141.60
2018-07-30T07:19:48.611Z,136.70
2018-07-30T07:20:48.950Z,148.10
2018-07-30T07:21:48.760Z,133.60
2018-07-30T07:22:48.757Z,125.80
2018-07-30T07:23:48.845Z,123.90
2018-07-30T07:24:48.834Z,122.70
2018-07-30T07:25:49.089Z,136.90
2018-07-30T07:26:48.898Z,133.90
2018-07-30T07:27:48.971Z,126.50
2018-07-30T07:28:49.015Z,132.90
2018-07-30T07:29:49.046Z,111.90
2018-07-30T07:30:49.128Z,112.90
2018-07-30T07:31:49.370Z,122.20
2018-07-30T07:32:49.193Z,115.30
2018-07-30T07:33:49.248Z,108.80
2018-07-30T07:34:49.349Z,111.60
2018-07-30T07:35:49.341Z,104.60
2018-07-30T07:36:49.380Z,116.20
2018-07-30T07:37:49.426Z,114.60
2018-07-30T07:38:49.521Z,119.20
2018-07-30T07:39:49.524Z,139.70
2018-07-30T07:40:49.543Z,131.40
2018-07-30T07:41:49.730Z,121.60
2018-07-30T07:42:49.631Z,120.30
2018-07-30T07:43:49.676Z,131.00
2018-07-30T07:44:49.787Z,127.70
2018-07-30T07:45:49.772Z,125.40
2018-07-30T07:46:49.837Z,130.70
2018-07-30T07:47:50.146Z,121.50
2018-07-30T07:48:49.902Z,122.10
2018-07-30T07:49:50.008Z,126.50
2018-07-30T07:50:50.244Z,118.60
2018-07-30T07:51:50.053Z,135.60
2018-07-30T07:52:50.247Z,142.50
2018-07-30T07:53:50.171Z,138.30
2018-07-30T07:54:50.200Z,139.60
2018-07-30T07:55:50.225Z,148.60
2018-07-30T07:56:50.265Z,145.20
2018-07-30T07:57:50.351Z,139.40
2018-07-30T07:58:50.374Z,141.20
2018-07-30T07:59:50.444Z,140.50
2018-07-30T08:00:50.442Z,125.20
2018-07-30T08:01:50.508Z,131.80
2018-07-30T08:02:50.739Z,148.00
2018-07-30T08:03:50.604Z,138.80
2018-07-30T08:04:50.606Z,137.90
2018-07-30T08:05:50.686Z,144.40
2018-07-30T08:06:50.783Z,151.20
2018-07-30T08:07:50.945Z,154.10
2018-07-30T08:08:50.817Z,135.80
2018-07-30T08:09:51.053Z,140.90
2018-07-30T08:10:50.923Z,135.80
2018-07-30T08:11:50.913Z,143.50
2018-07-30T08:12:50.970Z,144.00
2018-07-30T08:13:51.077Z,145.40
2018-07-30T08:14:51.041Z,143.90
2018-07-30T08:15:51.134Z,139.30
2018-07-30T08:16:51.153Z,143.60
2018-07-30T08:17:51.397Z,155.00
2018-07-30T08:18:51.242Z,149.40
2018-07-30T08:19:51.296Z,148.10
2018-07-30T08:20:51.360Z,152.10
2018-07-30T08:21:51.384Z,149.80
2018-07-30T08:22:51.488Z,153.20
2018-07-30T08:23:51.464Z,149.60
2018-07-30T08:25:51.596Z,162.50
2018-07-30T08:26:51.598Z,160.00
2018-07-30T08:27:51.838Z,162.00
2018-07-30T08:28:51.855Z,174.90
2018-07-30T08:29:51.731Z,170.80
2018-07-30T08:30:51.823Z,173.20
2018-07-30T08:31:51.814Z,171.70
2018-07-30T08:32:51.884Z,158.10
2018-07-30T08:33:51.935Z,158.80
2018-07-30T08:34:51.954Z,179.40
2018-07-30T08:35:52.058Z,173.60
2018-07-30T08:36:52.044Z,154.40
2018-07-30T08:37:52.159Z,163.30
2018-07-30T08:38:52.333Z,164.90
2018-07-30T08:39:52.186Z,157.40
2018-07-30T08:40:52.208Z,166.50
2018-07-30T08:41:52.252Z,184.10
2018-07-30T08:42:52.291Z,174.20
2018-07-30T08:43:52.579Z,207.70
2018-07-30T08:44:52.391Z,194.90
2018-07-30T08:45:52.465Z,183.80
2018-07-30T08:46:52.548Z,185.50
2018-07-30T08:47:52.548Z,177.00
2018-07-30T08:48:52.741Z,206.30
2018-07-30T08:49:52.817Z,201.10
2018-07-30T08:50:52.656Z,202.20
2018-07-30T08:51:52.754Z,207.50
2018-07-30T08:52:52.753Z,207.20
2018-07-30T08:53:52.803Z,195.20
2018-07-30T08:54:53.032Z,191.70
2018-07-30T08:55:52.904Z,196.00
2018-07-30T08:56:52.957Z,208.70
2018-07-30T08:57:52.988Z,189.10
2018-07-30T08:58:53.062Z,188.90
2018-07-30T08:59:53.056Z,185.60
2018-07-30T09:00:53.132Z,186.70
2018-07-30T09:01:53.371Z,186.30
2018-07-30T09:02:53.221Z,177.90
2018-07-30T09:03:53.240Z,185.30
2018-07-30T09:04:53.294Z,185.30
2018-07-30T09:05:53.342Z,195.20
2018-07-30T09:06:53.584Z,197.30
2018-07-30T09:07:53.412Z,189.50
2018-07-30T09:08:53.473Z,190.50
2018-07-30T09:09:53.525Z,216.70
2018-07-30T09:10:53.557Z,210.30
2018-07-30T09:11:53.584Z,227.80
2018-07-30T09:12:54.039Z,235.30
2018-07-30T09:13:53.713Z,226.00
2018-07-30T09:14:53.755Z,223.80
2018-07-30T09:15:53.828Z,227.30
2018-07-30T09:16:53.871Z,237.10
2018-07-30T09:17:53.848Z,241.10
2018-07-30T09:18:53.904Z,243.90
2018-07-30T09:19:53.974Z,244.80
2018-07-30T09:20:54.015Z,245.90
2018-07-30T09:21:54.040Z,239.60
2018-07-30T09:22:54.126Z,242.90
2018-07-30T09:23:54.336Z,255.50
2018-07-30T09:24:54.167Z,267.80
2018-07-30T09:25:54.223Z,290.20
2018-07-30T09:26:54.292Z,297.20
2018-07-30T09:27:54.280Z,318.30
2018-07-30T09:28:54.347Z,315.60
2018-07-30T09:29:54.360Z,323.50
2018-07-30T09:30:54.446Z,324.70
2018-07-30T09:31:54.474Z,295.30
2018-07-30T09:32:54.625Z,292.40
2018-07-30T09:33:54.808Z,310.70
2018-07-30T09:34:54.617Z,304.90
2018-07-30T09:35:54.643Z,287.60
2018-07-30T09:36:54.707Z,293.70
2018-07-30T09:37:54.736Z,289.80
2018-07-30T09:38:54.988Z,293.40
2018-07-30T09:39:54.824Z,291.20
2018-07-30T09:40:54.880Z,318.70
2018-07-30T09:41:54.883Z,301.30
2018-07-30T09:42:54.958Z,331.00
2018-07-30T09:43:54.983Z,374.20
2018-07-30T09:44:55.243Z,435.60
2018-07-30T09:45:55.075Z,445.00
2018-07-30T09:46:55.128Z,407.10
2018-07-30T09:47:55.169Z,482.40
2018-07-30T09:48:55.237Z,404.20
2018-07-30T09:49:55.574Z,381.90
2018-07-30T09:50:55.312Z,352.80
2018-07-30T09:51:55.351Z,417.70
2018-07-30T09:52:55.396Z,419.10
2018-07-30T09:53:55.439Z,416.60
2018-07-30T09:54:55.477Z,459.20
2018-07-30T09:55:55.681Z,502.40
2018-07-30T09:56:55.578Z,538.50
2018-07-30T09:57:55.624Z,534.20
2018-07-30T09:58:55.638Z,510.10
2018-07-30T09:59:55.693Z,540.00
2018-07-30T10:00:55.764Z,555.80
2018-07-30T10:01:55.779Z,543.50
2018-07-30T10:02:55.832Z,563.40
2018-07-30T10:03:55.879Z,553.90
2018-07-30T10:04:55.930Z,546.20
2018-07-30T10:05:55.958Z,528.30
2018-07-30T10:06:56.003Z,550.10
2018-07-30T10:07:56.064Z,529.00
2018-07-30T10:08:56.085Z,549.50
2018-07-30T10:09:56.151Z,537.80
2018-07-30T10:10:56.170Z,532.60
2018-07-30T10:11:56.202Z,554.30
2018-07-30T10:12:56.246Z,530.50
2018-07-30T10:13:56.297Z,534.90
2018-07-30T10:14:56.361Z,521.60
2018-07-30T10:15:56.371Z,524.60
2018-07-30T10:16:56.455Z,553.40
2018-07-30T10:17:56.731Z,533.30
2018-07-30T10:18:56.489Z,524.70
2018-07-30T10:19:56.549Z,532.80
2018-07-30T10:20:56.613Z,526.60
2018-07-30T10:21:56.662Z,532.30
2018-07-30T10:22:56.698Z,539.00
2018-07-30T10:23:56.749Z,512.30
2018-07-30T10:24:56.819Z,530.80
2018-07-30T10:25:56.828Z,517.50
2018-07-30T10:26:56.841Z,505.30
2018-07-30T10:27:56.891Z,535.50
2018-07-30T10:28:56.951Z,514.90
2018-07-30T10:29:56.986Z,529.90
2018-07-30T10:30:57.048Z,524.50
2018-07-30T10:31:57.102Z,534.80
2018-07-30T10:32:57.098Z,529.80
2018-07-30T10:33:57.217Z,525.30
2018-07-30T10:34:57.255Z,499.20
2018-07-30T10:35:57.251Z,461.70
2018-07-30T10:36:57.317Z,437.20
2018-07-30T10:37:57.373Z,402.00
2018-07-30T10:38:57.554Z,329.40
2018-07-30T10:39:57.489Z,309.50
2018-07-30T10:40:57.473Z,283.50
2018-07-30T10:41:57.594Z,227.30
2018-07-30T10:42:57.575Z,200.90
2018-07-30T10:43:57.621Z,190.40
2018-07-30T10:44:57.834Z,174.10
2018-07-30T10:45:57.761Z,171.80
2018-07-30T10:46:57.801Z,161.70
2018-07-30T10:47:57.800Z,166.50
2018-07-30T10:48:57.826Z,157.90
2018-07-30T10:49:57.911Z,155.00
2018-07-30T10:50:58.129Z,156.10
2018-07-30T10:51:57.979Z,143.20
2018-07-30T10:52:58.022Z,125.30
2018-07-30T10:53:58.070Z,120.50
2018-07-30T10:54:58.126Z,116.90
2018-07-30T10:55:58.141Z,114.30
2018-07-30T10:56:58.354Z,109.10
2018-07-30T10:57:58.232Z,107.60
2018-07-30T10:58:58.349Z,107.40
2018-07-30T10:59:58.355Z,106.30
2018-07-30T11:00:58.401Z,113.80
2018-07-30T11:01:58.432Z,118.00
2018-07-30T11:02:58.497Z,120.80
2018-07-30T11:03:58.541Z,128.30
2018-07-30T11:04:58.592Z,155.50
2018-07-30T11:05:58.624Z,214.40
2018-07-30T11:06:58.674Z,233.00
2018-07-30T11:07:58.715Z,203.80
2018-07-30T11:08:58.975Z,202.80
2018-07-30T11:09:58.794Z,194.30
2018-07-30T11:10:58.875Z,176.80
2018-07-30T11:11:58.885Z,199.80
2018-07-30T11:12:58.983Z,224.10
2018-07-30T11:13:59.005Z,244.40
2018-07-30T11:14:59.063Z,240.50
2018-07-30T11:15:59.123Z,234.10
2018-07-30T11:16:59.154Z,209.60
2018-07-30T11:17:59.219Z,244.40
2018-07-30T11:18:59.235Z,245.70
2018-07-30T11:19:59.295Z,252.20
2018-07-30T11:20:59.363Z,243.40
2018-07-30T11:21:59.400Z,225.00
2018-07-30T11:22:59.437Z,237.00
2018-07-30T11:24:01.001Z,228.00
2018-07-30T11:24:59.524Z,249.00
2018-07-30T11:25:59.589Z,256.20
2018-07-30T11:26:59.646Z,240.40
2018-07-30T11:27:59.712Z,253.70
2018-07-30T11:28:59.762Z,240.20
2018-07-30T11:29:59.786Z,241.80
2018-07-30T11:30:59.840Z,241.10
2018-07-30T11:31:59.888Z,235.80
2018-07-30T11:32:59.937Z,236.40
2018-07-30T11:33:59.979Z,203.50
2018-07-30T11:35:00.038Z,160.50
2018-07-30T11:36:00.096Z,115.60
2018-07-30T11:37:00.137Z,112.10
2018-07-30T11:38:00.193Z,108.80
2018-07-30T11:39:00.238Z,87.30
2018-07-30T11:40:00.326Z,82.60
2018-07-30T11:41:00.379Z,80.00
2018-07-30T11:42:00.388Z,80.60
2018-07-30T11:43:00.494Z,88.60
2018-07-30T11:44:00.486Z,86.90
2018-07-30T11:45:00.539Z,86.50
2018-07-30T11:46:00.587Z,93.10
2018-07-30T11:47:00.656Z,92.30
2018-07-30T11:48:00.694Z,95.20
2018-07-30T11:49:00.966Z,104.90
2018-07-30T11:50:00.788Z,105.10
2018-07-30T11:51:00.836Z,118.90
2018-07-30T11:52:00.891Z,127.10
2018-07-30T11:53:00.939Z,126.80
2018-07-30T11:54:01.310Z,141.10
2018-07-30T11:55:01.256Z,150.60
2018-07-30T11:56:01.101Z,162.00
2018-07-30T11:57:01.146Z,166.00
2018-07-30T11:58:01.184Z,184.70
2018-07-30T11:59:01.244Z,205.90
2018-07-30T12:00:01.296Z,225.60
2018-07-30T12:01:01.346Z,236.80
2018-07-30T12:02:01.369Z,242.20
2018-07-30T12:03:01.423Z,249.70
2018-07-30T12:04:01.473Z,234.20
2018-07-30T12:05:01.549Z,204.90
2018-07-30T12:06:01.793Z,206.10
2018-07-30T12:07:01.611Z,195.80
2018-07-30T12:08:01.683Z,201.30
2018-07-30T12:09:01.729Z,198.20
2018-07-30T12:10:01.956Z,196.80
2018-07-30T12:11:01.852Z,199.60
2018-07-30T12:12:01.874Z,177.40
2018-07-30T12:13:01.912Z,163.00
2018-07-30T12:14:01.967Z,138.30
2018-07-30T12:15:02.039Z,121.90
2018-07-30T12:16:02.050Z,109.80
2018-07-30T12:17:02.311Z,102.90
2018-07-30T12:18:02.199Z,110.30
2018-07-30T12:19:02.207Z,111.90
2018-07-30T12:20:02.311Z,116.60
2018-07-30T12:21:02.317Z,119.50
2018-07-30T12:23:02.473Z,111.20
2018-07-30T12:24:02.446Z,98.20
2018-07-30T12:25:02.527Z,88.20
2018-07-30T12:26:02.564Z,75.30
2018-07-30T12:27:02.619Z,71.50
2018-07-30T12:28:02.662Z,68.60
2018-07-30T12:29:02.739Z,69.80
2018-07-30T12:30:02.937Z,70.60
2018-07-30T12:31:02.809Z,73.20
2018-07-30T12:32:02.864Z,76.40
2018-07-30T12:33:02.916Z,70.70
2018-07-30T12:34:03.022Z,63.70
2018-07-30T12:35:03.050Z,58.60
2018-07-30T12:36:03.281Z,55.30
2018-07-30T12:37:03.186Z,51.60
2018-07-30T12:38:03.213Z,47.80
2018-07-30T12:39:03.459Z,49.90
2018-07-30T12:40:03.303Z,47.80
2018-07-30T12:41:03.392Z,47.40
2018-07-30T12:42:03.406Z,47.60
2018-07-30T12:43:03.528Z,45.70
2018-07-30T12:44:03.540Z,45.80
2018-07-30T12:45:03.613Z,48.60